sensor_id;sensor_type;location;lat;lon;timestamp;pressure;altitude;pressure_sealevel;temperature;humidity
20019;BME280;10170;42.502;26.526;2023-05-24T00:00:21;99321.84;;;13.59;100.00
20019;BME280;10170;42.502;26.526;2023-05-24T00:02:48;99319.75;;;13.61;100.00
20019;BME280;10170;42.502;26.526;2023-05-24T00:05:15;99310.81;;;13.67;100.00
20019;BME280;10170;42.502;26.526;2023-05-24T00:07:44;99311.16;;;13.59;100.00
20019;BME280;10170;42.502;26.526;2023-05-24T00:10:11;99309.88;;;13.50;100.00
20019;BME280;10170;42.502;26.526;2023-05-24T00:12:38;99308.38;;;13.54;100.00
20019;BME280;10170;42.502;26.526;2023-05-24T00:15:05;99310.13;;;13.48;100.00
20019;BME280;10170;42.502;26.526;2023-05-24T00:17:32;99301.66;;;13.51;100.00
20019;BME280;10170;42.502;26.526;2023-05-24T00:20:00;99309.09;;;13.49;100.00
20019;BME280;10170;42.502;26.526;2023-05-24T00:22:27;99303.50;;;13.62;100.00
20019;BME280;10170;42.502;26.526;2023-05-24T00:24:53;99304.44;;;13.56;100.00
20019;BME280;10170;42.502;26.526;2023-05-24T00:27:20;99310.59;;;13.68;100.00
20019;BME280;10170;42.502;26.526;2023-05-24T00:29:47;99311.31;;;13.64;100.00
20019;BME280;10170;42.502;26.526;2023-05-24T00:32:13;99308.84;;;13.51;100.00
20019;BME280;10170;42.502;26.526;2023-05-24T00:34:40;99308.38;;;13.54;100.00
20019;BME280;10170;42.502;26.526;2023-05-24T00:37:07;99300.81;;;13.62;100.00
20019;BME280;10170;42.502;26.526;2023-05-24T00:39:34;99297.13;;;13.63;100.00
20019;BME280;10170;42.502;26.526;2023-05-24T00:42:01;99308.63;;;13.64;100.00
20019;BME280;10170;42.502;26.526;2023-05-24T00:44:28;99302.81;;;13.67;100.00
20019;BME280;10170;42.502;26.526;2023-05-24T00:46:55;99305.47;;;13.67;100.00
20019;BME280;10170;42.502;26.526;2023-05-24T00:49:23;99310.72;;;13.62;100.00
20019;BME280;10170;42.502;26.526;2023-05-24T00:51:50;99316.06;;;13.62;100.00
20019;BME280;10170;42.502;26.526;2023-05-24T00:54:18;99310.38;;;13.58;100.00
20019;BME280;10170;42.502;26.526;2023-05-24T00:56:46;99308.97;;;13.56;100.00
20019;BME280;10170;42.502;26.526;2023-05-24T00:59:13;99309.31;;;13.59;100.00
20019;BME280;10170;42.502;26.526;2023-05-24T01:01:40;99306.53;;;13.43;100.00
20019;BME280;10170;42.502;26.526;2023-05-24T01:04:08;99307.44;;;13.48;100.00
20019;BME280;10170;42.502;26.526;2023-05-24T01:06:59;99309.06;;;13.61;100.00
20019;BME280;10170;42.502;26.526;2023-05-24T01:09:36;99315.13;;;13.33;100.00
20019;BME280;10170;42.502;26.526;2023-05-24T01:12:35;99309.88;;;13.27;100.00
20019;BME280;10170;42.502;26.526;2023-05-24T01:15:17;99314.63;;;13.25;100.00
20019;BME280;10170;42.502;26.526;2023-05-24T01:18:15;99308.94;;;13.10;100.00
20019;BME280;10170;42.502;26.526;2023-05-24T01:20:42;99306.75;;;13.07;100.00
20019;BME280;10170;42.502;26.526;2023-05-24T01:26:36;99309.81;;;12.92;100.00
20019;BME280;10170;42.502;26.526;2023-05-24T01:29:05;99312.22;;;12.82;100.00
20019;BME280;10170;42.502;26.526;2023-05-24T01:31:33;99312.81;;;12.84;100.00
20019;BME280;10170;42.502;26.526;2023-05-24T01:34:01;99316.00;;;12.74;100.00
20019;BME280;10170;42.502;26.526;2023-05-24T01:36:28;99316.59;;;12.77;100.00
20019;BME280;10170;42.502;26.526;2023-05-24T01:38:55;99307.47;;;12.84;100.00
20019;BME280;10170;42.502;26.526;2023-05-24T01:44:51;99303.50;;;13.16;100.00
20019;BME280;10170;42.502;26.526;2023-05-24T01:47:06;99300.38;;;13.19;100.00
20019;BME280;10170;42.502;26.526;2023-05-24T01:49:41;99298.75;;;13.07;100.00
20019;BME280;10170;42.502;26.526;2023-05-24T01:52:18;99304.13;;;12.89;100.00
20019;BME280;10170;42.502;26.526;2023-05-24T01:54:51;99311.44;;;12.93;100.00
20019;BME280;10170;42.502;26.526;2023-05-24T01:57:19;99308.88;;;12.87;100.00
20019;BME280;10170;42.502;26.526;2023-05-24T01:59:49;99313.34;;;12.74;100.00
20019;BME280;10170;42.502;26.526;2023-05-24T02:02:17;99302.25;;;12.78;100.00
20019;BME280;10170;42.502;26.526;2023-05-24T02:04:44;99306.44;;;12.85;100.00
20019;BME280;10170;42.502;26.526;2023-05-24T02:07:11;99308.88;;;12.98;100.00
20019;BME280;10170;42.502;26.526;2023-05-24T02:09:38;99297.97;;;13.00;100.00
20019;BME280;10170;42.502;26.526;2023-05-24T02:12:06;99307.91;;;13.11;100.00
20019;BME280;10170;42.502;26.526;2023-05-24T02:14:32;99310.75;;;12.98;100.00
20019;BME280;10170;42.502;26.526;2023-05-24T02:16:59;99311.44;;;12.93;100.00
20019;BME280;10170;42.502;26.526;2023-05-24T02:19:28;99322.09;;;12.82;100.00
20019;BME280;10170;42.502;26.526;2023-05-24T02:21:55;99320.91;;;12.78;100.00
20019;BME280;10170;42.502;26.526;2023-05-24T02:24:21;99319.31;;;12.58;100.00
20019;BME280;10170;42.502;26.526;2023-05-24T02:26:48;99329.28;;;12.51;100.00
20019;BME280;10170;42.502;26.526;2023-05-24T02:29:15;99328.47;;;12.51;100.00
20019;BME280;10170;42.502;26.526;2023-05-24T02:31:42;99331.63;;;12.59;100.00
20019;BME280;10170;42.502;26.526;2023-05-24T02:34:08;99331.94;;;12.51;100.00
20019;BME280;10170;42.502;26.526;2023-05-24T02:36:35;99328.84;;;12.54;100.00
20019;BME280;10170;42.502;26.526;2023-05-24T02:39:02;99332.34;;;12.37;100.00
20019;BME280;10170;42.502;26.526;2023-05-24T02:41:29;99324.94;;;12.39;100.00
20019;BME280;10170;42.502;26.526;2023-05-24T02:43:56;99330.50;;;12.37;100.00
20019;BME280;10170;42.502;26.526;2023-05-24T02:46:23;99337.16;;;12.46;100.00
20019;BME280;10170;42.502;26.526;2023-05-24T02:48:50;99320.44;;;12.21;100.00
20019;BME280;10170;42.502;26.526;2023-05-24T02:51:17;99335.16;;;12.42;100.00
20019;BME280;10170;42.502;26.526;2023-05-24T02:53:44;99339.81;;;12.46;100.00
20019;BME280;10170;42.502;26.526;2023-05-24T02:56:11;99334.59;;;12.51;100.00
20019;BME280;10170;42.502;26.526;2023-05-24T02:58:39;99335.13;;;12.60;100.00
20019;BME280;10170;42.502;26.526;2023-05-24T03:01:06;99333.03;;;12.62;100.00
20019;BME280;10170;42.502;26.526;2023-05-24T03:03:34;99337.03;;;12.53;100.00
20019;BME280;10170;42.502;26.526;2023-05-24T03:06:01;99328.28;;;12.34;100.00
20019;BME280;10170;42.502;26.526;2023-05-24T03:08:28;99338.59;;;12.60;100.00
20019;BME280;10170;42.502;26.526;2023-05-24T03:10:54;99339.47;;;12.73;100.00
20019;BME280;10170;42.502;26.526;2023-05-24T03:13:21;99343.44;;;12.82;100.00
20019;BME280;10170;42.502;26.526;2023-05-24T03:15:48;99344.72;;;12.91;100.00
20019;BME280;10170;42.502;26.526;2023-05-24T03:18:15;99353.28;;;12.81;100.00
20019;BME280;10170;42.502;26.526;2023-05-24T03:20:42;99360.25;;;12.82;100.00
20019;BME280;10170;42.502;26.526;2023-05-24T03:23:09;99358.03;;;12.79;100.00
20019;BME280;10170;42.502;26.526;2023-05-24T03:25:35;99353.38;;;12.74;100.00
20019;BME280;10170;42.502;26.526;2023-05-24T03:28:02;99357.56;;;12.70;100.00
20019;BME280;10170;42.502;26.526;2023-05-24T03:30:29;99361.22;;;12.58;100.00
20019;BME280;10170;42.502;26.526;2023-05-24T03:32:56;99366.81;;;12.20;100.00
20019;BME280;10170;42.502;26.526;2023-05-24T03:35:23;99369.16;;;12.28;100.00
20019;BME280;10170;42.502;26.526;2023-05-24T03:37:50;99359.09;;;12.30;100.00
20019;BME280;10170;42.502;26.526;2023-05-24T03:40:16;99374.78;;;12.38;100.00
20019;BME280;10170;42.502;26.526;2023-05-24T03:42:43;99368.19;;;12.41;100.00
20019;BME280;10170;42.502;26.526;2023-05-24T03:45:10;99335.22;;;12.35;100.00
20019;BME280;10170;42.502;26.526;2023-05-24T03:47:37;99366.34;;;12.71;100.00
20019;BME280;10170;42.502;26.526;2023-05-24T03:50:04;99364.44;;;12.90;100.00
20019;BME280;10170;42.502;26.526;2023-05-24T03:52:31;99354.31;;;12.80;100.00
20019;BME280;10170;42.502;26.526;2023-05-24T03:54:57;99365.91;;;12.74;100.00
20019;BME280;10170;42.502;26.526;2023-05-24T03:57:30;99365.41;;;12.95;100.00
20019;BME280;10170;42.502;26.526;2023-05-24T03:59:57;99362.00;;;13.18;100.00
20019;BME280;10170;42.502;26.526;2023-05-24T04:02:25;99349.34;;;13.13;100.00
20019;BME280;10170;42.502;26.526;2023-05-24T04:04:52;99365.03;;;13.33;100.00
20019;BME280;10170;42.502;26.526;2023-05-24T04:07:19;99348.44;;;13.31;100.00
20019;BME280;10170;42.502;26.526;2023-05-24T04:09:46;99361.47;;;13.50;100.00
20019;BME280;10170;42.502;26.526;2023-05-24T04:12:12;99365.78;;;13.74;100.00
20019;BME280;10170;42.502;26.526;2023-05-24T04:14:39;99367.88;;;13.72;100.00
20019;BME280;10170;42.502;26.526;2023-05-24T04:17:06;99366.13;;;13.55;100.00
20019;BME280;10170;42.502;26.526;2023-05-24T04:19:33;99374.91;;;13.32;100.00
20019;BME280;10170;42.502;26.526;2023-05-24T04:22:00;99366.22;;;13.37;100.00
20019;BME280;10170;42.502;26.526;2023-05-24T04:24:26;99374.13;;;13.43;100.00
20019;BME280;10170;42.502;26.526;2023-05-24T04:26:53;99380.75;;;13.64;100.00
20019;BME280;10170;42.502;26.526;2023-05-24T04:29:20;99382.25;;;13.83;100.00
20019;BME280;10170;42.502;26.526;2023-05-24T04:31:46;99378.50;;;14.07;100.00
20019;BME280;10170;42.502;26.526;2023-05-24T04:34:14;99376.06;;;14.17;100.00
20019;BME280;10170;42.502;26.526;2023-05-24T04:36:41;99382.91;;;14.25;100.00
20019;BME280;10170;42.502;26.526;2023-05-24T04:39:08;99368.88;;;14.18;100.00
20019;BME280;10170;42.502;26.526;2023-05-24T04:41:35;99373.03;;;14.37;100.00
20019;BME280;10170;42.502;26.526;2023-05-24T04:44:02;99374.88;;;14.36;100.00
20019;BME280;10170;42.502;26.526;2023-05-24T04:46:29;99375.38;;;14.33;100.00
20019;BME280;10170;42.502;26.526;2023-05-24T04:48:57;99376.31;;;14.27;100.00
20019;BME280;10170;42.502;26.526;2023-05-24T04:51:23;99396.63;;;14.40;100.00
20019;BME280;10170;42.502;26.526;2023-05-24T04:53:50;99394.63;;;14.47;100.00
20019;BME280;10170;42.502;26.526;2023-05-24T04:56:17;99401.38;;;14.49;100.00
20019;BME280;10170;42.502;26.526;2023-05-24T04:58:44;99399.88;;;14.53;100.00
20019;BME280;10170;42.502;26.526;2023-05-24T05:01:11;99397.00;;;14.71;100.00
20019;BME280;10170;42.502;26.526;2023-05-24T05:03:38;99388.22;;;14.88;100.00
20019;BME280;10170;42.502;26.526;2023-05-24T05:06:05;99412.41;;;14.93;100.00
20019;BME280;10170;42.502;26.526;2023-05-24T05:08:32;99411.91;;;14.96;100.00
20019;BME280;10170;42.502;26.526;2023-05-24T05:10:59;99412.78;;;15.13;100.00
20019;BME280;10170;42.502;26.526;2023-05-24T05:13:26;99413.84;;;15.28;100.00
20019;BME280;10170;42.502;26.526;2023-05-24T05:15:53;99414.00;;;15.38;100.00
20019;BME280;10170;42.502;26.526;2023-05-24T05:18:19;99416.13;;;15.36;100.00
20019;BME280;10170;42.502;26.526;2023-05-24T05:20:46;99412.44;;;15.26;100.00
20019;BME280;10170;42.502;26.526;2023-05-24T05:23:13;99420.25;;;15.55;100.00
20019;BME280;10170;42.502;26.526;2023-05-24T05:25:40;99407.22;;;15.64;100.00
20019;BME280;10170;42.502;26.526;2023-05-24T05:28:06;99418.59;;;15.88;100.00
20019;BME280;10170;42.502;26.526;2023-05-24T05:30:33;99433.28;;;16.02;100.00
20019;BME280;10170;42.502;26.526;2023-05-24T05:33:00;99432.63;;;16.11;100.00
20019;BME280;10170;42.502;26.526;2023-05-24T05:35:27;99430.34;;;16.20;100.00
20019;BME280;10170;42.502;26.526;2023-05-24T05:37:54;99444.25;;;16.55;100.00
20019;BME280;10170;42.502;26.526;2023-05-24T05:40:20;99446.06;;;16.71;100.00
20019;BME280;10170;42.502;26.526;2023-05-24T05:42:48;99446.50;;;16.84;100.00
20019;BME280;10170;42.502;26.526;2023-05-24T05:45:15;99448.88;;;16.81;100.00
20019;BME280;10170;42.502;26.526;2023-05-24T05:47:42;99459.69;;;16.86;100.00
20019;BME280;10170;42.502;26.526;2023-05-24T05:50:09;99433.91;;;16.63;100.00
20019;BME280;10170;42.502;26.526;2023-05-24T05:52:36;99457.97;;;17.02;100.00
20019;BME280;10170;42.502;26.526;2023-05-24T05:55:05;99455.47;;;17.17;100.00
20019;BME280;10170;42.502;26.526;2023-05-24T05:57:34;99459.34;;;17.31;100.00
20019;BME280;10170;42.502;26.526;2023-05-24T06:00:00;99468.22;;;17.53;100.00
20019;BME280;10170;42.502;26.526;2023-05-24T06:02:27;99468.84;;;17.65;100.00
20019;BME280;10170;42.502;26.526;2023-05-24T06:04:55;99473.28;;;17.81;100.00
20019;BME280;10170;42.502;26.526;2023-05-24T06:07:21;99473.75;;;18.05;100.00
20019;BME280;10170;42.502;26.526;2023-05-24T06:09:48;99487.06;;;18.21;100.00
20019;BME280;10170;42.502;26.526;2023-05-24T06:12:15;99488.91;;;18.57;100.00
20019;BME280;10170;42.502;26.526;2023-05-24T06:14:42;99491.13;;;18.70;100.00
20019;BME280;10170;42.502;26.526;2023-05-24T06:17:09;99481.78;;;18.93;100.00
20019;BME280;10170;42.502;26.526;2023-05-24T06:19:36;99489.34;;;18.91;100.00
20019;BME280;10170;42.502;26.526;2023-05-24T06:22:03;99491.13;;;18.70;100.00
20019;BME280;10170;42.502;26.526;2023-05-24T06:24:30;99500.03;;;18.71;100.00
20019;BME280;10170;42.502;26.526;2023-05-24T06:27:00;99497.16;;;18.87;100.00
20019;BME280;10170;42.502;26.526;2023-05-24T06:29:30;99509.00;;;18.91;100.00
20019;BME280;10170;42.502;26.526;2023-05-24T06:31:57;99498.19;;;18.81;100.00
20019;BME280;10170;42.502;26.526;2023-05-24T06:34:24;99496.84;;;18.84;100.00
20019;BME280;10170;42.502;26.526;2023-05-24T06:36:51;99507.25;;;18.60;100.00
20019;BME280;10170;42.502;26.526;2023-05-24T06:39:18;99488.47;;;18.80;100.00
20019;BME280;10170;42.502;26.526;2023-05-24T06:41:45;99498.09;;;19.28;100.00
20019;BME280;10170;42.502;26.526;2023-05-24T06:44:12;99496.81;;;19.36;100.00
20019;BME280;10170;42.502;26.526;2023-05-24T06:46:39;99481.03;;;19.13;100.00
20019;BME280;10170;42.502;26.526;2023-05-24T06:49:06;99491.19;;;19.72;100.00
20019;BME280;10170;42.502;26.526;2023-05-24T06:51:34;99510.34;;;20.11;100.00
20019;BME280;10170;42.502;26.526;2023-05-24T06:54:01;99528.19;;;20.37;100.00
20019;BME280;10170;42.502;26.526;2023-05-24T06:56:28;99522.22;;;20.50;100.00
20019;BME280;10170;42.502;26.526;2023-05-24T06:58:55;99513.31;;;20.30;100.00
20019;BME280;10170;42.502;26.526;2023-05-24T07:01:22;99529.13;;;21.02;100.00
20019;BME280;10170;42.502;26.526;2023-05-24T07:03:49;99536.19;;;21.46;100.00
20019;BME280;10170;42.502;26.526;2023-05-24T07:06:15;99533.94;;;21.15;100.00
20019;BME280;10170;42.502;26.526;2023-05-24T07:08:43;99536.78;;;20.59;100.00
20019;BME280;10170;42.502;26.526;2023-05-24T07:11:10;99538.63;;;20.84;100.00
20019;BME280;10170;42.502;26.526;2023-05-24T07:13:37;99535.88;;;21.04;100.00
20019;BME280;10170;42.502;26.526;2023-05-24T07:16:05;99540.19;;;21.59;100.00
20019;BME280;10170;42.502;26.526;2023-05-24T07:18:32;99539.63;;;21.67;100.00
20019;BME280;10170;42.502;26.526;2023-05-24T07:20:58;99542.59;;;21.60;100.00
20019;BME280;10170;42.502;26.526;2023-05-24T07:23:26;99544.69;;;22.12;100.00
20019;BME280;10170;42.502;26.526;2023-05-24T07:25:53;99541.75;;;22.42;100.00
20019;BME280;10170;42.502;26.526;2023-05-24T07:28:20;99544.00;;;22.87;100.00
20019;BME280;10170;42.502;26.526;2023-05-24T07:30:47;99543.66;;;23.18;100.00
20019;BME280;10170;42.502;26.526;2023-05-24T07:33:14;99537.69;;;22.40;100.00
20019;BME280;10170;42.502;26.526;2023-05-24T07:35:42;99558.44;;;22.83;100.00
20019;BME280;10170;42.502;26.526;2023-05-24T07:38:11;99554.13;;;22.48;100.00
20019;BME280;10170;42.502;26.526;2023-05-24T07:40:38;99561.06;;;22.64;100.00
20019;BME280;10170;42.502;26.526;2023-05-24T07:43:04;99548.88;;;22.90;100.00
20019;BME280;10170;42.502;26.526;2023-05-24T07:45:31;99558.50;;;22.78;100.00
20019;BME280;10170;42.502;26.526;2023-05-24T07:47:58;99551.88;;;22.89;100.00
20019;BME280;10170;42.502;26.526;2023-05-24T07:50:25;99555.50;;;22.79;100.00
20019;BME280;10170;42.502;26.526;2023-05-24T07:52:52;99548.16;;;22.56;100.00
20019;BME280;10170;42.502;26.526;2023-05-24T07:55:20;99555.78;;;23.02;100.00
20019;BME280;10170;42.502;26.526;2023-05-24T07:57:47;99554.66;;;23.26;100.00
20019;BME280;10170;42.502;26.526;2023-05-24T08:00:14;99540.00;;;23.69;100.00
20019;BME280;10170;42.502;26.526;2023-05-24T08:02:42;99542.53;;;23.61;100.00
20019;BME280;10170;42.502;26.526;2023-05-24T08:05:11;99542.50;;;23.66;100.00
20019;BME280;10170;42.502;26.526;2023-05-24T08:07:38;99545.84;;;23.76;100.00
20019;BME280;10170;42.502;26.526;2023-05-24T08:10:10;99539.78;;;23.66;100.00
20019;BME280;10170;42.502;26.526;2023-05-24T08:12:40;99541.47;;;22.96;100.00
20019;BME280;10170;42.502;26.526;2023-05-24T08:15:08;99535.13;;;23.29;100.00
20019;BME280;10170;42.502;26.526;2023-05-24T08:17:35;99546.44;;;23.73;100.00
20019;BME280;10170;42.502;26.526;2023-05-24T08:20:03;99541.59;;;23.89;100.00
20019;BME280;10170;42.502;26.526;2023-05-24T08:22:35;99536.28;;;23.79;100.00
20019;BME280;10170;42.502;26.526;2023-05-24T08:25:03;99531.91;;;24.02;100.00
20019;BME280;10170;42.502;26.526;2023-05-24T08:27:31;99543.63;;;24.61;100.00
20019;BME280;10170;42.502;26.526;2023-05-24T08:29:58;99535.94;;;24.04;100.00
20019;BME280;10170;42.502;26.526;2023-05-24T08:32:25;99539.38;;;24.10;100.00
20019;BME280;10170;42.502;26.526;2023-05-24T08:34:52;99542.22;;;24.50;100.00
20019;BME280;10170;42.502;26.526;2023-05-24T08:37:32;99531.53;;;24.08;100.00
20019;BME280;10170;42.502;26.526;2023-05-24T08:39:59;99542.06;;;24.28;100.00
20019;BME280;10170;42.502;26.526;2023-05-24T08:42:27;99532.72;;;24.34;100.00
20019;BME280;10170;42.502;26.526;2023-05-24T08:45:03;99539.78;;;24.49;100.00
20019;BME280;10170;42.502;26.526;2023-05-24T08:47:31;99541.00;;;24.56;100.00
20019;BME280;10170;42.502;26.526;2023-05-24T08:49:58;99538.50;;;24.46;100.00
20019;BME280;10170;42.502;26.526;2023-05-24T08:52:26;99534.78;;;24.24;100.00
20019;BME280;10170;42.502;26.526;2023-05-24T08:54:54;99541.81;;;24.57;100.00
20019;BME280;10170;42.502;26.526;2023-05-24T08:57:21;99543.56;;;24.66;100.00
20019;BME280;10170;42.502;26.526;2023-05-24T08:59:48;99537.75;;;24.86;100.00
20019;BME280;10170;42.502;26.526;2023-05-24T09:02:15;99534.13;;;25.04;100.00
20019;BME280;10170;42.502;26.526;2023-05-24T09:04:43;99540.28;;;24.96;100.00
20019;BME280;10170;42.502;26.526;2023-05-24T09:07:12;99537.56;;;24.96;100.00
20019;BME280;10170;42.502;26.526;2023-05-24T09:09:42;99535.34;;;24.98;100.00
20019;BME280;10170;42.502;26.526;2023-05-24T09:12:17;99540.47;;;25.41;98.62
20019;BME280;10170;42.502;26.526;2023-05-24T09:15:04;99535.00;;;24.59;100.00
20019;BME280;10170;42.502;26.526;2023-05-24T09:17:33;99546.09;;;25.17;98.31
20019;BME280;10170;42.502;26.526;2023-05-24T09:20:00;99538.13;;;25.21;95.68
20019;BME280;10170;42.502;26.526;2023-05-24T09:22:28;99541.16;;;25.60;93.78
20019;BME280;10170;42.502;26.526;2023-05-24T09:24:57;99544.16;;;25.58;92.88
20019;BME280;10170;42.502;26.526;2023-05-24T09:27:26;99536.94;;;24.99;100.00
20019;BME280;10170;42.502;26.526;2023-05-24T09:29:54;99528.06;;;24.94;98.27
20019;BME280;10170;42.502;26.526;2023-05-24T09:32:22;99531.41;;;25.04;88.77
20019;BME280;10170;42.502;26.526;2023-05-24T09:34:51;99532.03;;;24.42;96.44
20019;BME280;10170;42.502;26.526;2023-05-24T09:37:20;99527.34;;;24.29;100.00
20019;BME280;10170;42.502;26.526;2023-05-24T09:39:55;99532.91;;;24.83;100.00
20019;BME280;10170;42.502;26.526;2023-05-24T09:42:24;99523.19;;;25.32;89.70
20019;BME280;10170;42.502;26.526;2023-05-24T09:45:03;99532.56;;;25.53;87.01
20019;BME280;10170;42.502;26.526;2023-05-24T09:47:42;99530.50;;;24.82;90.60
20019;BME280;10170;42.502;26.526;2023-05-24T09:50:14;99541.69;;;24.80;87.87
20019;BME280;10170;42.502;26.526;2023-05-24T09:52:42;99526.97;;;25.22;86.65
20019;BME280;10170;42.502;26.526;2023-05-24T09:55:13;99513.19;;;26.12;80.46
20019;BME280;10170;42.502;26.526;2023-05-24T09:57:42;99513.03;;;26.39;72.03
20019;BME280;10170;42.502;26.526;2023-05-24T10:00:10;99513.38;;;26.16;75.33
20019;BME280;10170;42.502;26.526;2023-05-24T10:02:43;99510.63;;;26.38;75.95
20019;BME280;10170;42.502;26.526;2023-05-24T10:05:19;99513.28;;;26.21;78.70
20019;BME280;10170;42.502;26.526;2023-05-24T10:07:46;99520.97;;;25.61;77.04
20019;BME280;10170;42.502;26.526;2023-05-24T10:10:14;99514.13;;;26.30;81.17
20019;BME280;10170;42.502;26.526;2023-05-24T10:12:41;99516.63;;;26.48;75.32
20019;BME280;10170;42.502;26.526;2023-05-24T10:15:12;99513.38;;;26.68;69.10
20019;BME280;10170;42.502;26.526;2023-05-24T10:17:39;99498.53;;;26.52;68.47
20019;BME280;10170;42.502;26.526;2023-05-24T10:20:06;99506.09;;;26.94;67.51
20019;BME280;10170;42.502;26.526;2023-05-24T10:22:42;99499.78;;;27.33;61.55
20019;BME280;10170;42.502;26.526;2023-05-24T10:25:21;99500.84;;;26.67;65.56
20019;BME280;10170;42.502;26.526;2023-05-24T10:27:50;99497.47;;;26.31;68.17
20019;BME280;10170;42.502;26.526;2023-05-24T10:30:40;99492.88;;;26.18;66.37
20019;BME280;10170;42.502;26.526;2023-05-24T10:33:11;99495.03;;;25.85;70.09
20019;BME280;10170;42.502;26.526;2023-05-24T10:35:40;99499.34;;;25.64;69.66
20019;BME280;10170;42.502;26.526;2023-05-24T10:38:08;99493.06;;;25.77;69.19
20019;BME280;10170;42.502;26.526;2023-05-24T10:40:40;99478.00;;;25.80;71.40
20019;BME280;10170;42.502;26.526;2023-05-24T10:43:07;99500.03;;;26.36;66.78
20019;BME280;10170;42.502;26.526;2023-05-24T10:45:38;99480.81;;;26.11;68.96
20019;BME280;10170;42.502;26.526;2023-05-24T10:50:42;99481.66;;;26.20;67.39
20019;BME280;10170;42.502;26.526;2023-05-24T10:53:21;99480.09;;;26.27;68.43
20019;BME280;10170;42.502;26.526;2023-05-24T10:56:01;99483.47;;;26.24;63.68
20019;BME280;10170;42.502;26.526;2023-05-24T10:58:59;99475.34;;;25.88;65.89
20019;BME280;10170;42.502;26.526;2023-05-24T11:01:32;99478.63;;;25.77;67.60
20019;BME280;10170;42.502;26.526;2023-05-24T11:04:06;99485.88;;;25.46;67.70
20019;BME280;10170;42.502;26.526;2023-05-24T11:06:55;99483.66;;;24.98;70.05
20019;BME280;10170;42.502;26.526;2023-05-24T11:09:23;99491.72;;;25.53;68.09
20019;BME280;10170;42.502;26.526;2023-05-24T11:11:55;99498.63;;;25.72;68.84
20019;BME280;10170;42.502;26.526;2023-05-24T11:14:26;99484.13;;;25.63;67.57
20019;BME280;10170;42.502;26.526;2023-05-24T11:16:53;99482.59;;;25.93;65.18
20019;BME280;10170;42.502;26.526;2023-05-24T11:19:34;99484.13;;;26.30;64.72
20019;BME280;10170;42.502;26.526;2023-05-24T11:22:05;99479.91;;;26.24;66.30
20019;BME280;10170;42.502;26.526;2023-05-24T11:24:33;99483.78;;;25.43;66.66
20019;BME280;10170;42.502;26.526;2023-05-24T11:27:00;99489.13;;;25.21;67.83
20019;BME280;10170;42.502;26.526;2023-05-24T11:29:28;99472.38;;;25.41;66.46
20019;BME280;10170;42.502;26.526;2023-05-24T11:31:57;99484.06;;;25.99;66.86
20019;BME280;10170;42.502;26.526;2023-05-24T11:34:31;99474.28;;;26.20;64.33
20019;BME280;10170;42.502;26.526;2023-05-24T11:36:58;99476.38;;;26.23;66.14
20019;BME280;10170;42.502;26.526;2023-05-24T11:39:30;99478.50;;;25.82;67.55
20019;BME280;10170;42.502;26.526;2023-05-24T11:41:58;99484.03;;;25.55;67.92
20019;BME280;10170;42.502;26.526;2023-05-24T11:44:31;99476.19;;;25.53;66.81
20019;BME280;10170;42.502;26.526;2023-05-24T11:46:59;99483.25;;;25.54;65.58
20019;BME280;10170;42.502;26.526;2023-05-24T11:49:26;99475.47;;;25.61;66.09
20019;BME280;10170;42.502;26.526;2023-05-24T11:51:54;99464.13;;;25.32;69.45
20019;BME280;10170;42.502;26.526;2023-05-24T11:54:26;99474.66;;;24.98;71.40
20019;BME280;10170;42.502;26.526;2023-05-24T11:56:53;99484.06;;;24.78;76.43
20019;BME280;10170;42.502;26.526;2023-05-24T11:59:25;99470.75;;;24.77;77.13
20019;BME280;10170;42.502;26.526;2023-05-24T12:02:00;99468.59;;;24.60;80.63
20019;BME280;10170;42.502;26.526;2023-05-24T12:04:28;99472.88;;;24.80;80.62
20019;BME280;10170;42.502;26.526;2023-05-24T12:06:56;99465.44;;;24.72;85.51
20019;BME280;10170;42.502;26.526;2023-05-24T12:09:23;99468.31;;;25.52;80.08
20019;BME280;10170;42.502;26.526;2023-05-24T12:11:52;99460.19;;;26.27;73.71
20019;BME280;10170;42.502;26.526;2023-05-24T12:14:22;99467.09;;;26.55;69.91
20019;BME280;10170;42.502;26.526;2023-05-24T12:16:49;99444.97;;;25.81;75.59
20019;BME280;10170;42.502;26.526;2023-05-24T12:19:20;99463.03;;;25.20;76.34
20019;BME280;10170;42.502;26.526;2023-05-24T12:22:10;99456.44;;;24.85;86.70
20019;BME280;10170;42.502;26.526;2023-05-24T12:24:37;99462.66;;;24.58;86.30
20019;BME280;10170;42.502;26.526;2023-05-24T12:27:04;99433.63;;;25.08;85.16
20019;BME280;10170;42.502;26.526;2023-05-24T12:29:37;99445.31;;;25.58;80.76
20019;BME280;10170;42.502;26.526;2023-05-24T12:32:06;99443.47;;;25.67;81.09
20019;BME280;10170;42.502;26.526;2023-05-24T12:34:43;99444.31;;;25.18;85.49
20019;BME280;10170;42.502;26.526;2023-05-24T12:37:10;99448.47;;;24.48;84.78
20019;BME280;10170;42.502;26.526;2023-05-24T12:39:39;99441.44;;;24.74;84.49
20019;BME280;10170;42.502;26.526;2023-05-24T12:42:09;99442.94;;;25.87;77.60
20019;BME280;10170;42.502;26.526;2023-05-24T12:44:38;99446.50;;;26.40;72.80
20019;BME280;10170;42.502;26.526;2023-05-24T12:47:06;99444.16;;;27.12;68.95
20019;BME280;10170;42.502;26.526;2023-05-24T12:49:34;99454.16;;;27.51;64.27
20019;BME280;10170;42.502;26.526;2023-05-24T12:52:02;99454.47;;;26.67;69.65
20019;BME280;10170;42.502;26.526;2023-05-24T12:54:29;99456.97;;;26.55;71.26
20019;BME280;10170;42.502;26.526;2023-05-24T12:56:56;99449.88;;;24.99;76.56
20019;BME280;10170;42.502;26.526;2023-05-24T12:59:26;99446.94;;;24.69;80.85